Time;durP1;ratioP1;P1;durP2;ratioP2;P2;SDS_P1;SDS_P2;PMS_P1;PMS_P2;Temp;Humidity;BMP_temperature;BMP_pressure;BME280_temperature;BME280_humidity;BME280_pressure;Samples;Min_cycle;Max_cycle;Signal;HPM_P1;HPM_P2
2024/01/07 00:00:19;;;;;;;25.40;16.92;;;0.20;99.90;;;;;;5075005;28;20043;-66
2024/01/07 00:02:44;;;;;;;26.65;18.98;;;0.10;99.90;;;;;;5074966;28;20036;-68
2024/01/07 00:05:10;;;;;;;23.45;15.15;;;0.20;99.90;;;;;;5069354;28;20052;-67
2024/01/07 00:07:36;;;;;;;23.42;18.10;;;0.20;99.90;;;;;;5055211;28;20047;-67
2024/01/07 00:10:02;;;;;;;25.83;19.30;;;0.10;99.90;;;;;;5054749;28;20489;-67
2024/01/07 00:12:27;;;;;;;23.10;14.85;;;0.10;99.90;;;;;;5054826;28;20059;-67
2024/01/07 00:14:53;;;;;;;24.25;16.00;;;0.10;99.90;;;;;;5055140;28;20040;-67
2024/01/07 00:17:19;;;;;;;25.85;18.08;;;0.10;99.90;;;;;;5038181;28;20044;-67
2024/01/07 00:19:44;;;;;;;25.27;16.83;;;0.10;99.90;;;;;;5037989;28;20052;-68
2024/01/07 00:22:10;;;;;;;24.92;16.63;;;0.10;99.90;;;;;;5038380;28;20036;-68
2024/01/07 00:24:36;;;;;;;23.15;15.50;;;0.10;99.90;;;;;;5038069;28;20094;-67
2024/01/07 00:27:02;;;;;;;21.75;13.32;;;0.10;99.90;;;;;;5054546;28;20036;-67
2024/01/07 00:29:28;;;;;;;21.02;14.80;;;0.10;99.90;;;;;;5054854;28;20040;-67
2024/01/07 00:31:53;;;;;;;23.75;16.15;;;0.00;99.90;;;;;;5038204;28;20044;-67
2024/01/07 00:34:19;;;;;;;21.98;15.95;;;0.10;99.90;;;;;;5038110;28;20044;-66
2024/01/07 00:36:45;;;;;;;23.38;16.13;;;0.10;99.90;;;;;;5038428;28;20504;-67
2024/01/07 00:39:11;;;;;;;20.75;13.82;;;0.00;99.90;;;;;;5037906;28;20043;-67
2024/01/07 00:41:37;;;;;;;20.45;14.43;;;0.10;99.90;;;;;;5037896;28;20104;-67
2024/01/07 00:44:02;;;;;;;21.92;14.95;;;0.10;99.90;;;;;;5038027;28;20047;-67
2024/01/07 00:46:28;;;;;;;21.15;14.98;;;0.10;99.90;;;;;;5054490;28;20037;-67
2024/01/07 00:48:54;;;;;;;23.08;16.35;;;0.10;99.90;;;;;;5040277;28;20125;-72
2024/01/07 00:51:20;;;;;;;20.15;12.75;;;0.00;99.90;;;;;;5058577;28;20086;-72
2024/01/07 00:53:45;;;;;;;24.33;16.30;;;0.10;99.90;;;;;;5041845;28;20048;-72
2024/01/07 00:56:11;;;;;;;21.25;13.52;;;0.00;99.90;;;;;;5042201;28;20137;-71
2024/01/07 00:58:37;;;;;;;20.20;14.48;;;0.10;99.90;;;;;;5025663;28;20051;-73
2024/01/07 01:01:03;;;;;;;22.60;16.30;;;0.10;99.90;;;;;;5058479;28;20037;-72
2024/01/07 01:03:29;;;;;;;22.50;16.27;;;0.10;99.90;;;;;;5076247;28;20041;-72
2024/01/07 01:05:54;;;;;;;24.13;16.35;;;0.30;99.90;;;;;;5053033;28;20052;-73
2024/01/07 01:08:20;;;;;;;25.00;17.20;;;0.10;99.90;;;;;;5078225;28;20126;-72
2024/01/07 01:10:46;;;;;;;24.30;17.75;;;0.10;99.90;;;;;;5061503;28;20036;-72
2024/01/07 01:13:12;;;;;;;24.88;16.60;;;0.20;99.90;;;;;;5061703;28;20043;-72
2024/01/07 01:15:37;;;;;;;24.70;16.77;;;0.10;99.90;;;;;;5061469;28;20135;-72
2024/01/07 01:18:03;;;;;;;25.98;17.90;;;0.00;99.90;;;;;;5061511;28;20075;-72
2024/01/07 01:20:29;;;;;;;23.00;16.90;;;0.00;99.90;;;;;;5061514;28;20040;-73
2024/01/07 01:22:55;;;;;;;12.55;6.80;;;0.10;99.90;;;;;;5061528;28;20074;-72
2024/01/07 01:25:20;;;;;;;24.23;16.05;;;0.10;99.90;;;;;;5078020;28;20036;-72
2024/01/07 01:27:46;;;;;;;23.45;15.07;;;0.10;99.90;;;;;;5078110;28;20051;-72
2024/01/07 01:30:13;;;;;;;20.17;14.95;;;0.20;99.90;;;;;;5061435;28;20130;-72
2024/01/07 01:32:39;;;;;;;19.88;14.57;;;0.10;99.90;;;;;;5061098;28;20055;-72
2024/01/07 01:35:05;;;;;;;21.02;16.25;;;0.10;99.90;;;;;;5077837;28;20043;-72
2024/01/07 01:37:34;;;;;;;20.27;14.38;;;0.10;99.90;;;;;;5077976;28;20048;-72
2024/01/07 01:40:00;;;;;;;21.30;15.85;;;0.20;99.90;;;;;;5044702;28;20036;-72
2024/01/07 01:42:26;;;;;;;17.75;12.85;;;0.10;99.90;;;;;;5077955;28;20377;-72
2024/01/07 01:44:53;;;;;;;21.88;15.15;;;0.10;99.90;;;;;;5060787;28;20046;-72
2024/01/07 01:47:19;;;;;;;22.45;14.75;;;0.20;99.90;;;;;;5077782;28;20599;-72
2024/01/07 01:49:46;;;;;;;22.15;15.00;;;0.20;99.90;;;;;;5077159;28;20048;-72
2024/01/07 01:52:13;;;;;;;22.17;15.48;;;0.10;99.90;;;;;;5060762;28;20039;-72
2024/01/07 01:54:40;;;;;;;13.77;8.27;;;0.20;99.90;;;;;;5077594;28;20442;-73
2024/01/07 01:57:07;;;;;;;21.42;14.30;;;0.20;99.90;;;;;;5060852;28;20048;-73
2024/01/07 01:59:34;;;;;;;20.05;15.20;;;0.10;99.90;;;;;;5060575;28;20110;-68
2024/01/07 02:02:01;;;;;;;18.13;11.13;;;0.10;99.90;;;;;;5060043;28;20048;-67
2024/01/07 02:04:27;;;;;;;19.85;14.40;;;0.20;99.90;;;;;;5060687;28;20118;-67
2024/01/07 02:06:53;;;;;;;18.50;14.15;;;0.20;99.90;;;;;;5060462;28;20502;-67
2024/01/07 02:09:19;;;;;;;20.50;13.63;;;0.20;99.90;;;;;;5077441;28;20051;-68
2024/01/07 02:12:06;;;;;;;16.65;10.77;;;0.10;99.90;;;;;;5077260;28;20036;-68
2024/01/07 02:14:35;;;;;;;19.50;13.65;;;0.20;99.90;;;;;;5060786;28;20094;-68
2024/01/07 02:17:00;;;;;;;19.77;13.50;;;0.10;99.90;;;;;;5060827;28;20187;-67
2024/01/07 02:19:26;;;;;;;21.20;14.48;;;0.10;99.90;;;;;;5060372;28;20567;-67
2024/01/07 02:21:52;;;;;;;15.88;9.88;;;0.00;99.90;;;;;;5060269;28;20492;-67
2024/01/07 02:24:18;;;;;;;20.50;15.23;;;0.00;99.90;;;;;;5043708;28;20040;-67
2024/01/07 02:26:44;;;;;;;19.65;14.02;;;0.00;99.90;;;;;;5077112;28;20036;-67
2024/01/07 02:29:10;;;;;;;18.75;12.77;;;0.00;99.90;;;;;;5077026;28;20170;-67
2024/01/07 02:31:35;;;;;;;21.90;14.50;;;0.00;99.90;;;;;;5076468;28;20047;-67
2024/01/07 02:34:01;;;;;;;19.70;13.98;;;0.00;99.90;;;;;;5060110;28;20572;-67
2024/01/07 02:36:27;;;;;;;20.23;14.85;;;0.00;99.90;;;;;;5076884;28;20047;-67
2024/01/07 02:38:53;;;;;;;19.35;12.23;;;0.00;99.90;;;;;;5059920;28;20040;-66
2024/01/07 02:41:19;;;;;;;20.75;14.80;;;0.00;99.90;;;;;;5076347;28;20393;-67
2024/01/07 02:43:45;;;;;;;21.30;15.02;;;-0.10;99.90;;;;;;5059910;28;20040;-67
2024/01/07 02:46:11;;;;;;;19.15;13.82;;;-0.10;99.90;;;;;;5076451;28;20042;-68
2024/01/07 02:48:37;;;;;;;18.85;13.55;;;-0.10;99.90;;;;;;5076705;28;20555;-68
2024/01/07 02:51:06;;;;;;;16.42;12.52;;;-0.10;99.90;;;;;;5059949;28;20036;-68
2024/01/07 02:53:31;;;;;;;17.50;12.88;;;-0.20;99.90;;;;;;5043292;28;20040;-67
2024/01/07 02:55:57;;;;;;;18.95;11.75;;;-0.10;99.90;;;;;;5059621;28;20131;-67
2024/01/07 02:58:23;;;;;;;16.73;12.90;;;-0.10;99.90;;;;;;5059561;28;20500;-67
2024/01/07 03:00:48;;;;;;;19.30;13.23;;;-0.10;99.90;;;;;;5059253;28;20101;-68
2024/01/07 03:03:14;;;;;;;17.38;12.25;;;-0.10;99.90;;;;;;5076161;28;20113;-67
2024/01/07 03:05:40;;;;;;;11.38;7.45;;;-0.10;99.90;;;;;;5059274;28;20527;-67
2024/01/07 03:08:06;;;;;;;17.58;11.80;;;-0.10;99.90;;;;;;5059444;28;20047;-67
2024/01/07 03:10:32;;;;;;;13.60;10.00;;;0.00;99.90;;;;;;5092463;28;20080;-69
2024/01/07 03:12:58;;;;;;;16.27;11.27;;;0.00;99.90;;;;;;5075786;28;20086;-67
2024/01/07 03:15:23;;;;;;;14.63;10.50;;;0.00;99.90;;;;;;5075531;28;20092;-67
2024/01/07 03:17:49;;;;;;;14.30;10.50;;;-0.10;99.90;;;;;;5075792;28;20089;-67
2024/01/07 03:20:15;;;;;;;13.05;6.90;;;-0.10;99.90;;;;;;5059092;28;20094;-67
2024/01/07 03:22:41;;;;;;;14.65;10.25;;;0.00;99.90;;;;;;5059225;28;20047;-67
2024/01/07 03:25:07;;;;;;;15.55;10.70;;;-0.10;99.90;;;;;;5059315;28;20051;-67
2024/01/07 03:27:33;;;;;;;15.25;10.35;;;-0.10;99.90;;;;;;5092545;28;20040;-68
2024/01/07 03:29:58;;;;;;;15.07;10.35;;;-0.10;99.90;;;;;;5059119;28;20054;-67
2024/01/07 03:32:24;;;;;;;14.80;10.57;;;-0.10;99.90;;;;;;5059218;28;20503;-67
2024/01/07 03:34:50;;;;;;;13.25;8.93;;;-0.10;99.90;;;;;;5075345;28;20039;-68
2024/01/07 03:37:17;;;;;;;10.52;6.38;;;-0.10;99.90;;;;;;5058624;28;20040;-68
2024/01/07 03:39:43;;;;;;;10.15;5.50;;;0.00;99.90;;;;;;5042323;28;20127;-67
2024/01/07 03:42:11;;;;;;;13.07;8.38;;;0.00;99.90;;;;;;5058698;28;20040;-68
2024/01/07 03:44:38;;;;;;;12.13;8.25;;;0.00;99.90;;;;;;5075330;28;20036;-68
2024/01/07 03:47:05;;;;;;;13.02;9.05;;;0.10;99.90;;;;;;5075384;28;20040;-68
2024/01/07 03:49:31;;;;;;;13.80;9.38;;;-0.10;99.90;;;;;;5058556;28;20094;-68
2024/01/07 03:51:57;;;;;;;14.20;9.98;;;-0.10;99.90;;;;;;5058602;28;20131;-67
2024/01/07 03:54:22;;;;;;;14.25;9.35;;;-0.20;99.90;;;;;;5058634;28;20068;-67
2024/01/07 03:56:48;;;;;;;12.57;8.48;;;-0.10;99.90;;;;;;5058552;28;20126;-68
2024/01/07 03:59:14;;;;;;;12.88;8.30;;;-0.10;99.90;;;;;;5075127;28;20039;-67
2024/01/07 04:01:40;;;;;;;15.00;10.02;;;-0.10;99.90;;;;;;5075134;28;20480;-68
2024/01/07 04:04:05;;;;;;;14.02;9.85;;;-0.20;99.90;;;;;;5042060;28;20039;-68
2024/01/07 04:06:31;;;;;;;16.10;10.70;;;-0.10;99.90;;;;;;5074624;28;20055;-68
2024/01/07 04:08:57;;;;;;;15.43;11.65;;;-0.20;99.90;;;;;;5075125;28;20491;-68
2024/01/07 04:11:23;;;;;;;16.15;12.00;;;-0.20;99.90;;;;;;5075117;28;20188;-67
2024/01/07 04:13:48;;;;;;;15.52;9.98;;;-0.30;99.90;;;;;;5058279;28;20040;-67
2024/01/07 04:16:21;;;;;;;14.82;10.93;;;-0.30;99.90;;;;;;5075163;28;20066;-67
2024/01/07 04:18:47;;;;;;;13.65;8.55;;;-0.30;99.90;;;;;;5074911;28;20044;-72
2024/01/07 04:21:13;;;;;;;14.35;9.80;;;-0.30;99.90;;;;;;5074701;28;20127;-72
2024/01/07 04:23:43;;;;;;;14.18;10.65;;;-0.20;99.90;;;;;;5075047;28;20139;-72
2024/01/07 04:26:09;;;;;;;14.18;9.68;;;-0.30;99.90;;;;;;5074849;28;20131;-72
2024/01/07 04:28:35;;;;;;;13.57;8.65;;;-0.30;99.90;;;;;;5074859;28;20040;-73
2024/01/07 04:31:01;;;;;;;13.43;7.95;;;-0.40;99.90;;;;;;5058137;28;20051;-73
2024/01/07 04:33:27;;;;;;;14.65;8.82;;;-0.30;99.90;;;;;;5058024;28;20130;-73
2024/01/07 04:35:57;;;;;;;13.68;8.95;;;-0.30;99.90;;;;;;5075170;28;20124;-72
2024/01/07 04:38:24;;;;;;;12.57;7.97;;;-0.30;99.90;;;;;;5058151;28;20039;-73
2024/01/07 04:40:51;;;;;;;14.95;9.60;;;-0.10;99.90;;;;;;5074732;28;20047;-73
2024/01/07 04:43:17;;;;;;;13.65;8.90;;;-0.30;99.90;;;;;;5041140;28;20032;-74
2024/01/07 04:45:43;;;;;;;13.25;8.65;;;-0.40;99.90;;;;;;5058409;28;20036;-73
2024/01/07 04:48:08;;;;;;;13.43;7.43;;;-0.30;99.90;;;;;;5058126;28;20036;-74
2024/01/07 04:50:34;;;;;;;12.48;7.80;;;-0.30;99.90;;;;;;5057992;28;20043;-74
2024/01/07 04:53:00;;;;;;;10.63;6.75;;;-0.30;99.90;;;;;;5057888;28;20036;-73
2024/01/07 04:55:27;;;;;;;11.25;7.82;;;-0.40;99.90;;;;;;5058002;28;20051;-73
2024/01/07 04:57:52;;;;;;;13.13;7.85;;;-0.40;99.90;;;;;;5075071;28;20488;-72
2024/01/07 05:00:18;;;;;;;12.63;8.18;;;-0.40;99.90;;;;;;5057886;28;20531;-72
2024/01/07 05:02:44;;;;;;;8.20;4.40;;;-0.40;99.90;;;;;;5074986;28;20036;-71
2024/01/07 05:05:10;;;;;;;12.48;7.88;;;-0.40;99.90;;;;;;5037690;28;20059;-72
2024/01/07 05:07:38;;;;;;;9.50;5.20;;;-0.30;99.90;;;;;;5055199;28;20397;-72
2024/01/07 05:10:04;;;;;;;7.93;3.70;;;-0.30;99.90;;;;;;5039100;28;20412;-72
2024/01/07 05:12:30;;;;;;;12.55;7.07;;;-0.30;99.90;;;;;;5039727;28;20044;-72
2024/01/07 05:14:56;;;;;;;10.70;6.80;;;-0.30;99.90;;;;;;5040167;28;20522;-72
2024/01/07 05:17:21;;;;;;;10.90;6.68;;;-0.30;99.90;;;;;;5057146;28;20048;-72
2024/01/07 05:19:47;;;;;;;11.43;6.82;;;-0.30;99.90;;;;;;5038206;28;20040;-72
2024/01/07 05:22:13;;;;;;;9.95;5.63;;;-0.40;99.90;;;;;;5056301;28;20480;-72
2024/01/07 05:24:39;;;;;;;11.02;6.30;;;-0.40;99.90;;;;;;5059918;28;20049;-72
2024/01/07 05:27:05;;;;;;;10.18;6.10;;;-0.40;99.90;;;;;;5060312;28;20041;-73
2024/01/07 05:29:33;;;;;;;10.13;6.30;;;-0.40;99.90;;;;;;5040692;28;20044;-67
2024/01/07 05:32:00;;;;;;;10.63;5.60;;;-0.40;99.90;;;;;;5054413;28;20485;-67
2024/01/07 05:34:29;;;;;;;9.52;5.57;;;-0.40;99.90;;;;;;5055350;28;20083;-67
2024/01/07 05:36:55;;;;;;;8.88;4.72;;;-0.40;99.90;;;;;;5057689;28;20083;-67
2024/01/07 05:39:20;;;;;;;7.28;3.65;;;-0.40;99.90;;;;;;5041011;28;20044;-67
2024/01/07 05:41:46;;;;;;;8.52;4.40;;;-0.30;99.90;;;;;;5040953;28;20135;-68
2024/01/07 05:44:12;;;;;;;7.78;4.25;;;-0.30;99.90;;;;;;5057619;28;20040;-68
2024/01/07 05:46:42;;;;;;;8.98;4.50;;;-0.20;99.90;;;;;;5040997;28;20074;-68
2024/01/07 05:49:08;;;;;;;7.82;3.50;;;-0.40;99.90;;;;;;5057612;28;20060;-68
2024/01/07 05:51:38;;;;;;;7.05;4.00;;;-0.30;99.90;;;;;;5057696;28;20036;-68
2024/01/07 05:54:04;;;;;;;7.60;3.55;;;-0.30;99.90;;;;;;5041302;28;20040;-67
2024/01/07 05:56:29;;;;;;;7.25;3.78;;;-0.30;99.90;;;;;;5040892;28;20541;-68
2024/01/07 05:58:55;;;;;;;7.45;3.72;;;-0.30;99.90;;;;;;5057616;28;20040;-67
2024/01/07 06:01:21;;;;;;;6.88;3.72;;;-0.20;99.90;;;;;;5057125;28;20041;-68
2024/01/07 06:03:47;;;;;;;7.38;3.75;;;-0.20;99.90;;;;;;5040543;28;20043;-68
2024/01/07 06:06:14;;;;;;;7.07;3.60;;;-0.30;99.90;;;;;;5052532;28;20079;-67
2024/01/07 06:08:43;;;;;;;7.20;3.60;;;-0.10;99.90;;;;;;5060785;28;20472;-67
2024/01/07 06:11:11;;;;;;;7.55;3.40;;;-0.30;99.90;;;;;;5060361;28;20051;-68
2024/01/07 06:13:37;;;;;;;7.28;3.60;;;-0.30;99.90;;;;;;5061108;28;20044;-66
2024/01/07 06:16:04;;;;;;;6.72;3.67;;;-0.30;99.90;;;;;;5044128;28;20130;-66
2024/01/07 06:18:30;;;;;;;3.10;1.50;;;-0.30;99.90;;;;;;5076996;28;20066;-67
2024/01/07 06:20:56;;;;;;;4.50;2.42;;;-0.30;99.90;;;;;;5060176;28;20130;-68
2024/01/07 06:23:21;;;;;;;7.55;3.35;;;-0.30;99.90;;;;;;5060390;28;20039;-68
2024/01/07 06:25:47;;;;;;;6.28;2.70;;;-0.30;99.90;;;;;;5060469;28;20036;-68
2024/01/07 06:28:13;;;;;;;4.72;2.47;;;-0.30;99.90;;;;;;5076961;28;20032;-68
2024/01/07 06:30:39;;;;;;;4.95;2.35;;;-0.30;99.90;;;;;;5076692;28;20127;-68
2024/01/07 06:33:05;;;;;;;5.75;3.10;;;-0.20;99.90;;;;;;5076593;28;20557;-68
2024/01/07 06:35:31;;;;;;;6.25;2.90;;;-0.30;99.90;;;;;;5077115;28;20044;-68
2024/01/07 06:37:57;;;;;;;6.90;3.40;;;-0.30;99.90;;;;;;5060360;28;20512;-68
2024/01/07 06:40:22;;;;;;;6.85;4.00;;;-0.20;99.90;;;;;;5076361;28;20040;-72
2024/01/07 06:42:48;;;;;;;5.22;2.85;;;-0.30;99.90;;;;;;5076443;28;20044;-73
2024/01/07 06:45:16;;;;;;;6.55;2.30;;;-0.30;99.90;;;;;;5059392;28;20062;-72
2024/01/07 06:47:42;;;;;;;6.50;2.90;;;-0.20;99.90;;;;;;5059562;28;20042;-72
2024/01/07 06:50:08;;;;;;;6.20;2.65;;;-0.30;99.90;;;;;;5076703;28;20131;-72
2024/01/07 06:52:34;;;;;;;5.18;2.80;;;-0.30;99.90;;;;;;5060035;28;20050;-72
2024/01/07 06:55:00;;;;;;;6.13;3.00;;;-0.30;99.90;;;;;;5076359;28;20127;-73
2024/01/07 06:57:26;;;;;;;7.45;3.10;;;-0.30;99.90;;;;;;5076564;28;20051;-71
2024/01/07 06:59:52;;;;;;;6.53;3.00;;;-0.30;99.90;;;;;;5059876;28;20073;-72
2024/01/07 07:02:18;;;;;;;7.97;3.10;;;-0.20;99.90;;;;;;5076269;28;20040;-73
2024/01/07 07:04:43;;;;;;;4.00;1.77;;;-0.20;99.90;;;;;;5075942;28;20126;-72
2024/01/07 07:07:09;;;;;;;5.95;2.50;;;-0.20;99.90;;;;;;5042095;28;20059;-72
2024/01/07 07:09:35;;;;;;;5.32;2.58;;;-0.20;99.90;;;;;;5042934;28;20097;-73
2024/01/07 07:12:01;;;;;;;5.57;2.60;;;-0.20;99.90;;;;;;5059591;28;20035;-72
2024/01/07 07:14:27;;;;;;;5.72;2.50;;;-0.20;99.90;;;;;;5059366;28;20048;-72
2024/01/07 07:16:52;;;;;;;5.65;2.63;;;-0.30;99.90;;;;;;5042757;28;20071;-73
2024/01/07 07:19:18;;;;;;;5.68;2.63;;;-0.20;99.90;;;;;;5059232;28;20047;-71
2024/01/07 07:21:44;;;;;;;6.22;2.63;;;-0.20;99.90;;;;;;5042413;28;20035;-72
2024/01/07 07:24:10;;;;;;;5.95;2.50;;;-0.30;99.90;;;;;;5059140;28;20101;-72
2024/01/07 07:26:40;;;;;;;4.88;2.40;;;-0.20;99.90;;;;;;5058929;28;20039;-72
2024/01/07 07:29:09;;;;;;;5.20;2.40;;;-0.20;99.90;;;;;;5042943;28;20044;-72
2024/01/07 07:31:36;;;;;;;6.35;2.60;;;-0.30;99.90;;;;;;5058856;28;20075;-72
2024/01/07 07:34:08;;;;;;;5.15;2.35;;;-0.20;99.90;;;;;;5058450;28;20048;-72
2024/01/07 07:36:34;;;;;;;6.53;2.75;;;-0.20;99.90;;;;;;5058766;28;20069;-73
2024/01/07 07:39:00;;;;;;;5.40;2.63;;;-0.20;99.90;;;;;;5058690;28;20058;-72
2024/01/07 07:41:26;;;;;;;5.22;2.20;;;-0.30;99.90;;;;;;5075231;28;20058;-73
2024/01/07 07:43:52;;;;;;;5.57;2.50;;;-0.30;99.90;;;;;;5058730;28;20043;-72
2024/01/07 07:46:17;;;;;;;5.40;2.63;;;-0.30;99.90;;;;;;5075268;28;20036;-73
2024/01/07 07:48:43;;;;;;;5.93;2.38;;;-0.30;99.90;;;;;;5042161;28;20041;-68
2024/01/07 07:51:10;;;;;;;4.35;1.40;;;-0.30;99.90;;;;;;5058900;28;20488;-68
2024/01/07 07:53:39;;;;;;;6.50;2.20;;;-0.20;99.90;;;;;;5075194;28;20094;-69
2024/01/07 07:56:06;;;;;;;5.70;2.25;;;-0.30;99.90;;;;;;5075409;28;20093;-68
2024/01/07 07:58:32;;;;;;;5.65;2.10;;;-0.40;99.90;;;;;;5058331;28;20101;-68
2024/01/07 08:00:58;;;;;;;5.05;2.22;;;-0.50;99.90;;;;;;5058435;28;20487;-68
2024/01/07 08:03:23;;;;;;;5.15;1.80;;;-0.50;99.90;;;;;;5058183;28;20036;-68
2024/01/07 08:05:49;;;;;;;4.30;1.60;;;-0.40;99.90;;;;;;5041747;28;20500;-68
2024/01/07 08:08:16;;;;;;;6.28;2.40;;;-0.40;99.90;;;;;;5058457;28;20048;-68
2024/01/07 08:10:42;;;;;;;5.65;1.98;;;-0.40;99.90;;;;;;5058310;28;20039;-69
2024/01/07 08:13:08;;;;;;;4.38;2.05;;;-0.50;99.90;;;;;;5075050;28;20040;-68
2024/01/07 08:15:35;;;;;;;5.05;2.35;;;-0.50;99.90;;;;;;5074948;28;20323;-69
2024/01/07 08:18:03;;;;;;;5.57;2.42;;;-0.60;99.90;;;;;;5058185;28;20088;-68
2024/01/07 08:20:29;;;;;;;4.90;2.20;;;-0.60;99.90;;;;;;5074934;28;20052;-69
2024/01/07 08:22:54;;;;;;;5.53;2.45;;;-0.60;99.90;;;;;;5074616;28;20165;-68
2024/01/07 08:25:20;;;;;;;6.85;2.60;;;-0.60;99.90;;;;;;5074727;28;20040;-68
2024/01/07 08:27:47;;;;;;;5.20;2.20;;;-0.70;99.90;;;;;;5058353;28;20529;-68
2024/01/07 08:30:13;;;;;;;6.03;2.50;;;-0.70;99.90;;;;;;5058406;28;20043;-68
2024/01/07 08:32:40;;;;;;;5.32;2.40;;;-0.60;99.90;;;;;;5057997;28;20051;-68
2024/01/07 08:35:06;;;;;;;4.22;2.00;;;-0.60;99.90;;;;;;5074695;28;20040;-68
2024/01/07 08:37:32;;;;;;;7.32;2.50;;;-0.60;99.90;;;;;;5074897;28;20032;-68
2024/01/07 08:39:59;;;;;;;4.60;1.90;;;-0.40;99.90;;;;;;5074046;28;20040;-69
2024/01/07 08:42:26;;;;;;;5.00;2.30;;;-0.40;99.90;;;;;;5041181;28;20093;-67
2024/01/07 08:44:52;;;;;;;6.00;2.50;;;-0.40;99.90;;;;;;5074598;28;20068;-68
2024/01/07 08:47:18;;;;;;;5.88;2.45;;;-0.30;99.90;;;;;;5041225;28;20072;-67
2024/01/07 08:49:43;;;;;;;5.05;2.20;;;-0.30;99.90;;;;;;5074435;28;20048;-67
2024/01/07 08:52:09;;;;;;;5.68;2.30;;;-0.20;99.90;;;;;;5074389;28;20036;-68
2024/01/07 08:54:35;;;;;;;5.88;2.20;;;-0.20;99.90;;;;;;5057894;28;20127;-68
2024/01/07 08:57:01;;;;;;;5.22;2.10;;;-0.10;99.90;;;;;;5074407;28;20068;-68
2024/01/07 08:59:27;;;;;;;3.03;1.20;;;-0.10;99.90;;;;;;5074608;28;20063;-73
2024/01/07 09:01:52;;;;;;;5.72;2.20;;;0.00;99.90;;;;;;5057641;28;20044;-74
2024/01/07 09:04:18;;;;;;;6.40;2.33;;;0.00;99.90;;;;;;5074420;28;20040;-73
2024/01/07 09:06:44;;;;;;;3.50;1.30;;;0.10;99.90;;;;;;5074371;28;20032;-74
2024/01/07 09:09:10;;;;;;;6.57;2.33;;;0.10;99.90;;;;;;5075145;28;20131;-73
2024/01/07 09:11:36;;;;;;;5.22;2.50;;;0.10;99.90;;;;;;5045268;28;20130;-73
2024/01/07 09:14:03;;;;;;;7.28;3.08;;;0.30;99.90;;;;;;5061679;28;20036;-73
2024/01/07 09:16:29;;;;;;;3.70;1.67;;;0.10;99.90;;;;;;5078467;28;20125;-73
2024/01/07 09:18:55;;;;;;;5.07;2.25;;;0.20;99.90;;;;;;5061545;28;20043;-73
2024/01/07 09:21:23;;;;;;;5.10;2.10;;;0.20;99.90;;;;;;5078108;28;20491;-73
2024/01/07 09:23:48;;;;;;;4.20;1.83;;;0.10;99.90;;;;;;5062349;28;20221;-74
2024/01/07 09:26:14;;;;;;;5.82;2.50;;;0.20;99.90;;;;;;5028437;28;20032;-73
2024/01/07 09:28:42;;;;;;;5.10;2.15;;;0.20;99.90;;;;;;5044578;28;20040;-74
2024/01/07 09:31:08;;;;;;;4.72;2.10;;;0.20;99.90;;;;;;5078150;28;20048;-74
2024/01/07 09:33:34;;;;;;;3.83;1.95;;;0.20;99.90;;;;;;5044633;28;20043;-73
2024/01/07 09:36:00;;;;;;;4.72;2.00;;;0.30;99.90;;;;;;5077811;28;20044;-74
2024/01/07 09:38:26;;;;;;;4.35;2.08;;;0.40;99.90;;;;;;5078004;28;20040;-74
2024/01/07 09:40:53;;;;;;;3.90;1.70;;;0.40;99.90;;;;;;5061041;28;20051;-73
2024/01/07 09:43:20;;;;;;;4.25;1.75;;;0.40;99.90;;;;;;5061002;28;20082;-73
2024/01/07 09:45:49;;;;;;;6.72;2.05;;;0.40;99.90;;;;;;5044413;28;20085;-73
2024/01/07 09:48:15;;;;;;;4.53;1.48;;;0.40;99.90;;;;;;5077532;28;20040;-73
2024/01/07 09:50:42;;;;;;;5.30;1.90;;;0.40;99.90;;;;;;5077788;28;20077;-73
2024/01/07 09:53:15;;;;;;;4.88;1.92;;;0.50;99.90;;;;;;5077551;28;20097;-73
2024/01/07 09:55:52;;;;;;;4.93;1.90;;;0.50;99.90;;;;;;5077550;28;20078;-73
2024/01/07 09:58:17;;;;;;;4.20;1.50;;;0.50;99.90;;;;;;5060762;28;20078;-73
2024/01/07 10:00:43;;;;;;;4.38;1.50;;;0.50;99.90;;;;;;5060881;28;20075;-74
2024/01/07 10:03:10;;;;;;;5.35;1.88;;;0.60;99.90;;;;;;5043970;28;20048;-74
2024/01/07 10:05:35;;;;;;;5.07;1.90;;;0.50;99.90;;;;;;5060429;28;20043;-74
2024/01/07 10:08:02;;;;;;;3.30;1.35;;;0.60;99.90;;;;;;5043645;28;20056;-74
2024/01/07 10:10:29;;;;;;;4.43;1.70;;;0.60;99.90;;;;;;5077367;28;20396;-73
2024/01/07 10:12:56;;;;;;;4.07;1.33;;;0.60;99.90;;;;;;5077189;28;20040;-73
2024/01/07 10:15:23;;;;;;;4.43;1.75;;;0.60;99.90;;;;;;5060919;28;20105;-73
2024/01/07 10:17:48;;;;;;;5.55;2.05;;;0.60;99.90;;;;;;5077063;28;20132;-72
2024/01/07 10:20:16;;;;;;;3.50;1.40;;;0.60;99.90;;;;;;5077005;28;20079;-73
2024/01/07 10:22:49;;;;;;;4.45;1.60;;;0.70;99.90;;;;;;5077309;28;20036;-73
2024/01/07 10:25:15;;;;;;;4.70;1.80;;;0.60;99.90;;;;;;5077011;28;20047;-74
2024/01/07 10:27:41;;;;;;;6.13;1.80;;;0.70;99.90;;;;;;5060311;28;20125;-74
2024/01/07 10:30:08;;;;;;;4.85;1.83;;;0.60;99.90;;;;;;5076909;28;20404;-73
2024/01/07 10:32:36;;;;;;;3.25;1.45;;;0.60;99.90;;;;;;5076900;28;20047;-74
2024/01/07 10:35:05;;;;;;;3.40;1.40;;;0.60;99.90;;;;;;5043611;28;20075;-74
2024/01/07 10:37:32;;;;;;;5.45;1.90;;;0.60;99.90;;;;;;5076545;28;20078;-73
2024/01/07 10:40:03;;;;;;;4.68;1.90;;;0.70;99.90;;;;;;5076597;28;20048;-73
2024/01/07 10:42:32;;;;;;;4.43;1.77;;;0.60;99.90;;;;;;5059912;28;20071;-73
2024/01/07 10:45:00;;;;;;;4.13;1.67;;;0.60;99.90;;;;;;5060164;28;20090;-73
2024/01/07 10:47:31;;;;;;;4.28;1.85;;;0.70;99.90;;;;;;5059860;28;20035;-74
2024/01/07 10:49:58;;;;;;;5.50;1.92;;;0.60;99.90;;;;;;5043287;28;20133;-73
2024/01/07 10:52:27;;;;;;;5.68;1.50;;;0.60;99.90;;;;;;5059828;28;20039;-73
2024/01/07 10:54:56;;;;;;;4.93;1.98;;;0.70;99.90;;;;;;5076276;28;20048;-73
2024/01/07 10:57:49;;;;;;;5.50;2.10;;;0.60;99.90;;;;;;5076743;28;20111;-73
2024/01/07 11:00:18;;;;;;;5.40;1.92;;;0.60;99.90;;;;;;5076388;28;20048;-73
2024/01/07 11:03:11;;;;;;;7.22;2.28;;;0.70;99.90;;;;;;5076140;28;20155;-73
2024/01/07 11:05:49;;;;;;;5.68;2.15;;;0.70;99.90;;;;;;5076494;28;20475;-73
2024/01/07 11:08:56;;;;;;;5.00;1.90;;;0.70;99.90;;;;;;5076024;28;20055;-73
2024/01/07 11:11:35;;;;;;;5.85;2.15;;;0.70;99.90;;;;;;5071771;28;20403;-73
2024/01/07 11:14:02;;;;;;;5.72;2.30;;;0.70;99.90;;;;;;5076014;28;20047;-74
2024/01/07 11:16:44;;;;;;;5.32;2.10;;;0.70;99.90;;;;;;5059243;28;20166;-73
2024/01/07 11:19:13;;;;;;;6.22;2.45;;;0.70;99.90;;;;;;5075852;28;20040;-73
2024/01/07 11:21:38;;;;;;;4.93;2.10;;;0.70;99.90;;;;;;5059089;28;20048;-73
2024/01/07 11:24:04;;;;;;;5.80;2.50;;;0.80;99.90;;;;;;5075791;28;20400;-73
2024/01/07 11:26:30;;;;;;;6.03;2.50;;;0.70;99.90;;;;;;5076011;28;20036;-73
2024/01/07 11:28:57;;;;;;;5.15;2.40;;;0.70;99.90;;;;;;5059056;28;20123;-73
2024/01/07 11:31:39;;;;;;;5.95;2.30;;;0.70;99.90;;;;;;5075512;28;20433;-74
2024/01/07 11:34:04;;;;;;;7.50;2.60;;;0.70;99.90;;;;;;5075872;28;20476;-73
2024/01/07 11:36:31;;;;;;;4.60;2.10;;;1.00;99.90;;;;;;5059316;28;20043;-73
2024/01/07 11:38:57;;;;;;;5.35;2.28;;;0.70;99.90;;;;;;5075627;28;20480;-73
2024/01/07 11:41:26;;;;;;;5.18;2.15;;;0.70;99.90;;;;;;5058807;28;20400;-74
2024/01/07 11:43:58;;;;;;;6.78;2.90;;;0.80;99.90;;;;;;5075497;28;20511;-73
2024/01/07 11:46:24;;;;;;;5.05;2.30;;;0.80;99.90;;;;;;5075295;28;20032;-73
2024/01/07 11:48:57;;;;;;;5.78;2.47;;;0.80;99.90;;;;;;5058835;28;20498;-73
2024/01/07 11:51:28;;;;;;;5.20;2.17;;;0.90;99.90;;;;;;5075294;28;20048;-73
2024/01/07 11:53:54;;;;;;;6.82;2.60;;;1.00;99.90;;;;;;5058700;28;20040;-73
2024/01/07 11:56:20;;;;;;;2.78;1.27;;;1.00;99.90;;;;;;5075491;28;20040;-72
2024/01/07 11:58:46;;;;;;;4.22;1.88;;;1.10;99.90;;;;;;5059142;28;20098;-73
2024/01/07 12:01:14;;;;;;;5.75;2.45;;;1.10;99.90;;;;;;5058465;28;20074;-73
2024/01/07 12:03:43;;;;;;;6.07;2.40;;;1.00;99.90;;;;;;5042132;28;20057;-73
2024/01/07 12:06:13;;;;;;;6.57;2.80;;;1.00;99.90;;;;;;5075126;28;20104;-73
2024/01/07 12:08:39;;;;;;;6.97;2.85;;;1.00;99.90;;;;;;5058183;28;20087;-73
2024/01/07 12:11:05;;;;;;;6.28;2.55;;;1.00;99.90;;;;;;5075296;28;20492;-73
2024/01/07 12:13:31;;;;;;;6.60;2.40;;;1.00;99.90;;;;;;5075327;28;20495;-73
2024/01/07 12:15:57;;;;;;;6.47;3.20;;;1.10;99.90;;;;;;5075288;28;20040;-72
2024/01/07 12:18:25;;;;;;;8.55;3.83;;;1.20;99.90;;;;;;5074866;28;20046;-73
2024/01/07 12:20:59;;;;;;;5.20;2.15;;;1.20;99.90;;;;;;5058654;28;20038;-72
2024/01/07 12:23:28;;;;;;;4.90;1.83;;;1.20;99.90;;;;;;5025367;28;20040;-72
2024/01/07 12:25:55;;;;;;;6.97;3.00;;;1.30;99.90;;;;;;5041821;28;20086;-73
2024/01/07 12:28:21;;;;;;;5.60;2.80;;;1.30;99.90;;;;;;5074965;28;20036;-69
2024/01/07 12:30:50;;;;;;;8.70;3.83;;;1.30;99.90;;;;;;5058166;28;20044;-68
2024/01/07 12:33:20;;;;;;;7.97;3.83;;;1.40;99.90;;;;;;5058105;28;20109;-69
2024/01/07 12:35:47;;;;;;;9.32;5.38;;;1.30;99.90;;;;;;5058406;28;20048;-68
2024/01/07 12:38:12;;;;;;;9.52;5.13;;;1.20;99.90;;;;;;5075041;28;20050;-69
2024/01/07 12:40:39;;;;;;;9.07;5.40;;;1.20;99.90;;;;;;5041111;28;20052;-69
2024/01/07 12:43:08;;;;;;;10.57;5.50;;;1.10;99.90;;;;;;5041227;28;20438;-69